Time;durP1;ratioP1;P1;durP2;ratioP2;P2;SDS_P1;SDS_P2;PMS_P1;PMS_P2;Temp;Humidity;BMP_temperature;BMP_pressure;BME280_temperature;BME280_humidity;BME280_pressure;Samples;Min_cycle;Max_cycle;Signal;HPM_P1;HPM_P2
2021/12/06 00:03:34;;;;;;;40.72;25.95;;;;;;;3.27;100.00;101322.00;10539097;28;20494;-76
2021/12/06 00:08:34;;;;;;;40.80;27.83;;;;;;;3.33;100.00;101318.75;10540763;28;20032;-78
2021/12/06 00:13:40;;;;;;;40.17;27.77;;;;;;;3.37;100.00;101313.97;10522386;28;20460;-77
2021/12/06 00:18:41;;;;;;;38.70;29.07;;;;;;;3.42;100.00;101325.09;10539835;28;20078;-77
2021/12/06 00:23:41;;;;;;;47.70;28.33;;;;;;;3.47;100.00;101331.72;10540609;28;20405;-78
2021/12/06 00:28:43;;;;;;;46.10;26.40;;;;;;;3.54;100.00;101339.19;10543196;28;20542;-79
2021/12/06 00:33:44;;;;;;;46.38;25.77;;;;;;;3.58;100.00;101345.97;10546884;28;20028;-79
2021/12/06 00:38:47;;;;;;;40.88;27.50;;;;;;;3.60;100.00;101344.81;10550123;28;20036;-78
2021/12/06 00:43:47;;;;;;;38.42;26.95;;;;;;;3.65;100.00;101352.44;10532183;28;20487;-79
2021/12/06 00:48:48;;;;;;;38.03;27.10;;;;;;;3.67;100.00;101362.03;10549763;28;20036;-79
2021/12/06 00:53:48;;;;;;;42.10;28.00;;;;;;;3.72;100.00;101367.78;10547265;28;20474;-78
2021/12/06 00:58:49;;;;;;;46.65;30.70;;;;;;;3.73;100.00;101374.84;10546944;28;20036;-78
2021/12/06 01:03:49;;;;;;;40.03;29.48;;;;;;;3.73;100.00;101376.66;10545826;28;20083;-78
2021/12/06 01:08:50;;;;;;;41.25;30.45;;;;;;;3.76;100.00;101392.47;10528299;28;20478;-78
2021/12/06 01:13:50;;;;;;;46.88;29.02;;;;;;;3.80;100.00;101393.88;10546208;28;20039;-77
2021/12/06 01:18:51;;;;;;;38.15;28.45;;;;;;;3.82;100.00;101399.94;10546717;28;20036;-78
2021/12/06 01:23:58;;;;;;;54.53;29.98;;;;;;;3.81;100.00;101403.59;10561324;28;20493;-78
2021/12/06 01:39:10;;;;;;;44.35;29.88;;;;;;;3.80;100.00;101425.16;10544465;28;20098;-78
2021/12/06 01:39:28;;;;;;;48.13;29.20;;;;;;;3.81;100.00;101427.72;10544945;28;20061;-78
2021/12/06 01:44:34;;;;;;;41.60;26.17;;;;;;;3.79;100.00;101426.16;10545748;28;20471;-78
2021/12/06 01:49:36;;;;;;;45.83;30.95;;;;;;;3.77;100.00;101417.44;10545037;28;20035;-76
2021/12/06 01:54:37;;;;;;;45.25;31.65;;;;;;;3.76;99.96;101415.72;10544082;28;20122;-78
2021/12/06 01:59:38;;;;;;;45.72;29.83;;;;;;;3.72;100.00;101420.53;10544522;28;20139;-78
2021/12/06 02:04:38;;;;;;;46.60;30.35;;;;;;;3.72;99.87;101416.00;10544556;28;20367;-77
2021/12/06 02:09:39;;;;;;;51.42;33.17;;;;;;;3.68;99.78;101411.91;10544215;28;20062;-77
2021/12/06 02:19:44;;;;;;;54.20;31.35;;;;;;;3.49;98.71;101399.34;10543778;28;20066;-78
2021/12/06 02:24:45;;;;;;;45.53;29.75;;;;;;;3.33;98.53;101400.91;10543470;28;20020;-78
2021/12/06 02:29:46;;;;;;;49.75;31.33;;;;;;;3.16;98.40;101400.59;10542744;28;20119;-78
2021/12/06 02:34:49;;;;;;;50.72;31.83;;;;;;;3.01;97.95;101405.47;10558989;28;20479;-79
2021/12/06 02:39:51;;;;;;;48.78;32.08;;;;;;;2.92;98.12;101400.91;10543380;28;20028;-78
2021/12/06 02:44:52;;;;;;;46.30;33.00;;;;;;;2.79;97.31;101402.97;10543524;28;20032;-79
2021/12/06 02:49:52;;;;;;;48.08;32.03;;;;;;;2.65;97.78;101403.31;10542055;28;20031;-79
2021/12/06 02:54:56;;;;;;;53.50;34.00;;;;;;;2.55;96.70;101417.53;10544725;28;20035;-78
2021/12/06 02:59:57;;;;;;;46.13;32.55;;;;;;;2.46;95.95;101412.97;10542637;28;20050;-79
2021/12/06 03:04:57;;;;;;;50.50;33.85;;;;;;;2.37;96.37;101418.25;10544233;28;20036;-78
2021/12/06 03:09:58;;;;;;;41.17;31.38;;;;;;;2.28;95.63;101417.22;10541923;28;20112;-79
2021/12/06 03:14:59;;;;;;;44.85;32.30;;;;;;;2.09;95.09;101425.94;10542331;28;20153;-78
2021/12/06 03:20:00;;;;;;;48.78;31.90;;;;;;;2.08;95.83;101421.59;10540953;28;20111;-77
2021/12/06 03:25:00;;;;;;;46.85;33.00;;;;;;;2.03;95.53;101427.28;10540268;28;20032;-78
2021/12/06 03:30:00;;;;;;;48.22;29.42;;;;;;;1.95;96.45;101431.59;10541561;28;20039;-79
2021/12/06 03:35:01;;;;;;;49.08;34.75;;;;;;;2.07;96.77;101431.44;10540238;28;20036;-77
2021/12/06 03:40:01;;;;;;;55.10;37.17;;;;;;;2.14;97.55;101431.75;10539417;28;20055;-79
2021/12/06 03:45:05;;;;;;;62.30;36.88;;;;;;;2.06;95.88;101434.22;10541930;28;20119;-78
2021/12/06 03:50:06;;;;;;;57.17;36.05;;;;;;;2.06;96.55;101444.91;10541072;28;20043;-78
2021/12/06 03:55:08;;;;;;;53.50;37.00;;;;;;;2.10;96.80;101449.00;10538260;28;20074;-78
2021/12/06 04:00:09;;;;;;;69.10;36.28;;;;;;;2.13;97.35;101447.91;10539617;28;20052;-77
2021/12/06 04:05:09;;;;;;;55.00;34.70;;;;;;;2.10;96.93;101457.84;10538961;28;20028;-77
2021/12/06 04:10:10;;;;;;;62.50;34.05;;;;;;;2.10;97.13;101444.50;10538044;28;20032;-77
2021/12/06 04:15:12;;;;;;;63.40;39.38;;;;;;;2.08;97.02;101449.13;10539156;28;20476;-78
2021/12/06 04:20:12;;;;;;;63.78;37.70;;;;;;;2.12;97.68;101467.59;10539469;28;20112;-78
2021/12/06 04:25:14;;;;;;;53.15;33.92;;;;;;;2.17;98.30;101471.56;10539573;28;20126;-79
2021/12/06 04:30:15;;;;;;;59.33;35.97;;;;;;;2.24;98.05;101466.56;10539576;28;20032;-77
2021/12/06 04:35:15;;;;;;;66.15;40.97;;;;;;;2.30;98.51;101474.06;10538432;28;20057;-78
2021/12/06 04:40:16;;;;;;;59.78;38.03;;;;;;;2.41;99.31;101455.28;10540368;28;20032;-77
2021/12/06 04:45:16;;;;;;;61.47;38.22;;;;;;;2.40;98.80;101439.38;10538760;28;20585;-79
2021/12/06 04:50:17;;;;;;;58.58;37.92;;;;;;;2.35;98.18;101438.91;10539825;28;20108;-78
2021/12/06 04:55:27;;;;;;;54.05;37.72;;;;;;;2.26;97.03;101437.84;10537695;28;20360;-78
2021/12/06 05:00:37;;;;;;;57.45;35.92;;;;;;;2.19;97.01;101439.38;10539314;28;20072;-79
2021/12/06 05:05:43;;;;;;;61.53;36.88;;;;;;;2.07;96.14;101449.25;10556136;28;20128;-78
2021/12/06 05:10:43;;;;;;;62.77;35.60;;;;;;;1.94;95.84;101462.78;10538605;28;20456;-77
2021/12/06 05:15:44;;;;;;;59.40;33.33;;;;;;;1.85;95.35;101459.06;10544248;28;20040;-77
2021/12/06 05:20:44;;;;;;;51.63;35.20;;;;;;;1.70;95.12;101455.00;10545345;28;20033;-77
2021/12/06 05:25:44;;;;;;;56.13;35.42;;;;;;;1.69;94.64;101457.78;10529566;28;20177;-80
2021/12/06 05:30:45;;;;;;;62.35;38.33;;;;;;;1.62;94.95;101458.28;10561871;28;20032;-78
2021/12/06 05:35:46;;;;;;;61.63;37.58;;;;;;;1.69;97.06;101466.66;10545163;28;20031;-80
2021/12/06 05:40:47;;;;;;;69.68;40.97;;;;;;;2.06;98.68;101471.59;10545453;28;20490;-78
2021/12/06 05:45:47;;;;;;;64.00;40.05;;;;;;;2.29;100.00;101470.50;10546584;28;20039;-79
2021/12/06 05:50:48;;;;;;;77.60;46.92;;;;;;;2.49;100.00;101468.84;10545521;28;20047;-78
2021/12/06 05:55:48;;;;;;;71.18;47.40;;;;;;;2.55;100.00;101462.09;10545546;28;20046;-77
2021/12/06 06:00:49;;;;;;;84.28;46.90;;;;;;;2.51;100.00;101468.69;10547473;28;20055;-78
2021/12/06 06:05:49;;;;;;;89.25;44.80;;;;;;;2.53;100.00;101464.91;10547454;28;20040;-74
2021/12/06 06:10:51;;;;;;;241.00;55.42;;;;;;;2.45;100.00;101472.72;10542401;28;20471;-75
2021/12/06 06:15:51;;;;;;;215.88;49.70;;;;;;;2.42;100.00;101485.50;10544147;28;20121;-76
2021/12/06 06:20:53;;;;;;;319.20;59.50;;;;;;;2.46;100.00;101487.81;10497367;28;20095;-77
2021/12/06 06:25:54;;;;;;;167.48;41.88;;;;;;;2.40;100.00;101498.19;10541448;28;20516;-77
2021/12/06 06:30:55;;;;;;;240.27;48.20;;;;;;;2.34;100.00;101491.53;10544972;28;20031;-75
2021/12/06 06:35:55;;;;;;;355.25;66.32;;;;;;;2.37;100.00;101496.59;10542245;28;20059;-75
2021/12/06 06:40:56;;;;;;;319.67;60.25;;;;;;;2.29;100.00;101499.91;10508026;28;20024;-75
2021/12/06 06:45:56;;;;;;;287.25;59.85;;;;;;;2.41;100.00;101502.53;10543293;28;20035;-76
2021/12/06 06:50:57;;;;;;;101.10;35.58;;;;;;;2.50;100.00;101501.75;10542736;28;20035;-76
2021/12/06 06:55:57;;;;;;;123.57;36.35;;;;;;;2.46;100.00;101497.66;10542090;28;20485;-75
2021/12/06 07:00:58;;;;;;;189.80;51.38;;;;;;;2.52;100.00;101492.63;10559442;28;20112;-75
2021/12/06 07:05:59;;;;;;;117.03;46.38;;;;;;;2.46;100.00;101495.00;10544187;28;20356;-76
2021/12/06 07:11:00;;;;;;;118.75;45.67;;;;;;;2.54;100.00;101477.28;10557785;28;20371;-74
2021/12/06 07:16:03;;;;;;;120.03;42.92;;;;;;;2.59;100.00;101470.72;10541341;28;20032;-75
2021/12/06 07:21:04;;;;;;;145.05;46.97;;;;;;;2.54;100.00;101466.59;10540506;28;20421;-73
2021/12/06 07:26:08;;;;;;;98.03;36.38;;;;;;;2.51;100.00;101456.16;10540036;28;20034;-77
2021/12/06 07:31:12;;;;;;;122.30;51.42;;;;;;;2.54;100.00;101453.22;10542152;28;20475;-76
2021/12/06 07:36:13;;;;;;;76.65;38.92;;;;;;;2.55;100.00;101471.00;10543612;28;20074;-76
2021/12/06 07:41:15;;;;;;;107.28;42.10;;;;;;;2.58;100.00;101466.34;10543772;28;20506;-75
2021/12/06 07:46:15;;;;;;;77.10;41.45;;;;;;;2.65;100.00;101462.16;10541124;28;20034;-76
2021/12/06 07:51:16;;;;;;;103.40;49.13;;;;;;;2.62;100.00;101462.44;10546507;28;20032;-74
2021/12/06 07:56:16;;;;;;;83.10;44.63;;;;;;;2.63;100.00;101464.13;10540653;28;20043;-76
2021/12/06 08:01:17;;;;;;;110.05;44.30;;;;;;;2.70;100.00;101471.47;10521958;28;20127;-76
2021/12/06 08:06:17;;;;;;;63.33;37.03;;;;;;;2.71;100.00;101478.53;10539319;28;20071;-76
2021/12/06 08:11:19;;;;;;;81.65;41.67;;;;;;;2.76;100.00;101487.00;10539685;28;20111;-78
2021/12/06 08:16:22;;;;;;;63.75;38.80;;;;;;;2.81;100.00;101500.00;10539657;28;20043;-75
2021/12/06 08:21:22;;;;;;;120.43;45.58;;;;;;;2.93;100.00;101509.59;10540467;28;20069;-76
2021/12/06 08:26:25;;;;;;;102.82;50.38;;;;;;;3.03;100.00;101498.94;10539554;28;20042;-74
2021/12/06 08:31:27;;;;;;;87.32;47.95;;;;;;;3.08;100.00;101495.88;10538477;28;20064;-75
2021/12/06 08:36:27;;;;;;;95.68;49.30;;;;;;;3.12;100.00;101490.13;10539932;28;20115;-76
2021/12/06 08:41:28;;;;;;;115.63;52.30;;;;;;;3.14;100.00;101492.69;10539493;28;20036;-75
2021/12/06 08:46:37;;;;;;;94.40;52.40;;;;;;;3.16;100.00;101482.66;10539334;28;20174;-76
2021/12/06 08:51:40;;;;;;;112.53;56.47;;;;;;;3.19;100.00;101475.25;10546734;28;20067;-73
2021/12/06 08:56:40;;;;;;;100.05;60.90;;;;;;;3.28;100.00;101465.53;10548130;28;20032;-75
2021/12/06 09:01:41;;;;;;;121.50;64.28;;;;;;;3.23;100.00;101457.06;10545786;28;20433;-76
2021/12/06 09:06:43;;;;;;;112.07;59.75;;;;;;;3.36;100.00;101449.66;10562234;28;20040;-75
2021/12/06 09:11:44;;;;;;;116.53;62.50;;;;;;;3.37;100.00;101456.69;10545161;28;20448;-75
2021/12/06 09:16:45;;;;;;;104.97;54.70;;;;;;;3.44;100.00;101448.94;10545067;28;20123;-76
2021/12/06 09:21:45;;;;;;;87.22;54.55;;;;;;;3.35;100.00;101465.81;10544598;28;20064;-76
2021/12/06 09:26:46;;;;;;;84.85;45.63;;;;;;;3.42;100.00;101483.06;10561631;28;20051;-75
2021/12/06 09:31:46;;;;;;;73.60;35.72;;;;;;;3.34;100.00;101485.56;10545469;28;20077;-76
2021/12/06 09:36:47;;;;;;;67.88;42.65;;;;;;;3.34;100.00;101480.22;10545390;28;20122;-75
2021/12/06 09:41:47;;;;;;;95.97;52.13;;;;;;;3.40;100.00;101469.78;10545375;28;20028;-75
2021/12/06 09:46:48;;;;;;;102.57;49.10;;;;;;;3.42;100.00;101470.50;10528258;28;20116;-76
2021/12/06 09:51:54;;;;;;;92.28;51.30;;;;;;;3.27;100.00;101474.56;10547893;28;20464;-78
2021/12/06 09:56:55;;;;;;;94.93;53.33;;;;;;;3.32;100.00;101474.13;10550130;28;20050;-75
2021/12/06 10:02:05;;;;;;;116.47;53.95;;;;;;;3.41;100.00;101471.47;10545398;28;20135;-75
2021/12/06 10:07:09;;;;;;;88.10;42.83;;;;;;;3.28;100.00;101459.34;10548254;28;20398;-76
2021/12/06 10:12:11;;;;;;;63.92;34.03;;;;;;;3.29;100.00;101456.53;10544772;28;20111;-75
2021/12/06 10:17:11;;;;;;;76.65;41.20;;;;;;;3.35;100.00;101439.94;10543167;28;20032;-75
2021/12/06 10:22:13;;;;;;;69.18;45.47;;;;;;;3.55;100.00;101423.91;10525937;28;20043;-74
2021/12/06 10:27:14;;;;;;;103.07;45.63;;;;;;;3.46;100.00;101410.34;10543391;28;20034;-75
2021/12/06 10:32:16;;;;;;;84.95;47.03;;;;;;;3.47;100.00;101400.47;10542087;28;20039;-74
2021/12/06 10:37:53;;;;;;;111.03;53.60;;;;;;;3.30;100.00;101388.63;10527079;28;20123;-75
2021/12/06 10:42:54;;;;;;;90.20;50.00;;;;;;;3.44;100.00;101373.97;10534992;28;20454;-75
2021/12/06 10:48:16;;;;;;;93.57;49.58;;;;;;;3.66;100.00;101364.84;10542431;28;20043;-75
2021/12/06 10:53:17;;;;;;;85.75;49.35;;;;;;;3.69;100.00;101351.16;10542590;28;20036;-76
2021/12/06 10:58:22;;;;;;;77.90;49.35;;;;;;;3.72;100.00;101354.41;10541912;28;20093;-75
2021/12/06 11:03:31;;;;;;;84.03;44.20;;;;;;;3.67;100.00;101342.41;10540348;28;20048;-74
2021/12/06 11:08:32;;;;;;;78.15;46.38;;;;;;;3.84;100.00;101322.97;10539400;28;20036;-75
2021/12/06 11:13:34;;;;;;;77.15;44.60;;;;;;;3.95;100.00;101316.59;10540104;28;20040;-74
2021/12/06 11:18:43;;;;;;;76.32;44.13;;;;;;;3.82;100.00;101302.66;10541685;28;20085;-74
2021/12/06 11:24:00;;;;;;;91.90;45.25;;;;;;;3.83;100.00;101291.81;10541192;28;20024;-76
2021/12/06 11:29:08;;;;;;;82.28;44.70;;;;;;;4.08;100.00;101281.44;10541748;28;20044;-74
2021/12/06 11:34:09;;;;;;;64.07;36.92;;;;;;;4.07;100.00;101295.84;10523414;28;20044;-74
2021/12/06 11:39:13;;;;;;;73.70;38.33;;;;;;;3.75;100.00;101272.91;10523447;28;20368;-74
2021/12/06 11:44:14;;;;;;;82.82;39.47;;;;;;;3.67;100.00;101270.09;10522730;28;20047;-74
2021/12/06 11:49:19;;;;;;;72.55;32.90;;;;;;;3.79;100.00;101255.56;10541357;28;20101;-77
2021/12/06 11:54:19;;;;;;;64.65;33.33;;;;;;;3.59;100.00;101264.63;10539053;28;20040;-74
2021/12/06 11:59:20;;;;;;;58.42;34.35;;;;;;;3.45;100.00;101249.88;10541671;28;20032;-75
2021/12/06 12:04:25;;;;;;;63.67;33.20;;;;;;;3.53;100.00;101252.66;10540024;28;20083;-76
2021/12/06 12:09:30;;;;;;;57.75;34.20;;;;;;;3.50;100.00;101245.75;10538264;28;20198;-74
2021/12/06 12:14:35;;;;;;;61.00;32.72;;;;;;;3.55;100.00;101239.97;10539008;28;20024;-75
2021/12/06 12:19:36;;;;;;;53.53;28.83;;;;;;;3.52;100.00;101244.78;10541155;28;20088;-75
2021/12/06 12:24:38;;;;;;;54.22;30.75;;;;;;;3.47;100.00;101224.63;10546195;28;20085;-76
2021/12/06 12:29:39;;;;;;;39.13;23.88;;;;;;;3.46;100.00;101216.75;10548748;28;20032;-74
2021/12/06 12:34:42;;;;;;;48.55;26.85;;;;;;;3.21;100.00;101199.44;10529827;28;20032;-73
2021/12/06 12:39:51;;;;;;;38.90;24.08;;;;;;;3.19;100.00;101188.03;10547662;28;20032;-74
2021/12/06 12:44:53;;;;;;;50.33;25.92;;;;;;;3.24;100.00;101156.34;10530653;28;20042;-74
2021/12/06 12:49:58;;;;;;;38.85;23.23;;;;;;;3.13;100.00;101148.47;10546619;28;20093;-74
2021/12/06 12:54:59;;;;;;;45.08;25.95;;;;;;;3.08;100.00;101132.00;10546291;28;20039;-74
2021/12/06 13:00:02;;;;;;;36.28;23.08;;;;;;;3.03;100.00;101122.59;10546102;28;20083;-74
2021/12/06 13:05:07;;;;;;;36.72;24.05;;;;;;;3.06;100.00;101094.66;10546111;28;20521;-74
2021/12/06 13:10:23;;;;;;;32.63;20.43;;;;;;;3.05;100.00;101100.19;10547901;28;20024;-75
2021/12/06 13:16:24;;;;;;;37.05;23.95;;;;;;;2.98;100.00;101087.38;10547183;28;20028;-75
2021/12/06 13:21:38;;;;;;;31.52;20.33;;;;;;;2.90;100.00;101081.88;10545435;28;20090;-73
2021/12/06 13:26:40;;;;;;;36.47;20.97;;;;;;;2.83;100.00;101070.06;10545905;28;20036;-74
2021/12/06 13:31:40;;;;;;;40.83;22.65;;;;;;;2.68;100.00;101050.09;10546050;28;20031;-74
2021/12/06 13:37:00;;;;;;;35.97;20.00;;;;;;;2.73;100.00;101059.41;10527784;28;20055;-75
2021/12/06 13:42:06;;;;;;;33.00;22.35;;;;;;;2.71;100.00;101037.31;10528721;28;20039;-75
2021/12/06 13:47:19;;;;;;;28.75;21.65;;;;;;;2.68;100.00;101023.38;10545172;28;20376;-74
2021/12/06 13:52:37;;;;;;;36.95;20.52;;;;;;;2.71;100.00;101007.03;10545624;28;20035;-75
2021/12/06 13:57:37;;;;;;;24.08;17.27;;;;;;;2.77;100.00;100987.75;10527180;28;20060;-75
2021/12/06 14:02:38;;;;;;;26.45;18.00;;;;;;;2.73;100.00;100976.50;10545234;28;20075;-74
2021/12/06 14:07:39;;;;;;;29.77;21.17;;;;;;;2.77;100.00;100958.34;10543664;28;20070;-74
2021/12/06 14:12:41;;;;;;;29.73;19.35;;;;;;;2.74;100.00;100964.84;10543740;28;20505;-73
2021/12/06 14:17:41;;;;;;;27.23;19.33;;;;;;;2.74;100.00;100958.63;10526079;28;20468;-74
2021/12/06 14:22:43;;;;;;;30.63;19.02;;;;;;;2.69;100.00;100967.09;10543704;28;20032;-74
2021/12/06 14:27:43;;;;;;;34.05;21.10;;;;;;;2.87;100.00;100966.31;10543034;28;20043;-74
2021/12/06 14:32:46;;;;;;;25.45;16.75;;;;;;;2.91;100.00;100951.69;10524870;28;20051;-75
2021/12/06 14:37:46;;;;;;;24.45;16.48;;;;;;;2.78;100.00;100906.56;10541676;28;20105;-74
2021/12/06 14:42:47;;;;;;;20.67;15.15;;;;;;;2.70;100.00;100901.91;10544403;28;20039;-74
2021/12/06 14:47:57;;;;;;;34.80;17.98;;;;;;;2.73;100.00;100915.00;10541074;28;20127;-74
2021/12/06 14:52:58;;;;;;;25.90;17.00;;;;;;;2.70;100.00;100906.44;10541126;28;20055;-73
2021/12/06 14:58:05;;;;;;;28.58;18.05;;;;;;;2.70;100.00;100893.06;10541731;28;20060;-74
2021/12/06 15:03:06;;;;;;;28.80;18.40;;;;;;;2.66;100.00;100895.19;10540606;28;20075;-73
2021/12/06 15:08:09;;;;;;;25.17;17.25;;;;;;;2.62;100.00;100891.13;10524404;28;20039;-74
2021/12/06 15:13:10;;;;;;;33.47;18.52;;;;;;;2.76;100.00;100887.13;10540512;28;20026;-75
2021/12/06 15:18:14;;;;;;;23.65;18.30;;;;;;;2.74;100.00;100889.97;10541791;28;20119;-74
2021/12/06 15:23:23;;;;;;;24.88;16.70;;;;;;;2.78;100.00;100882.50;10540092;28;20036;-74
2021/12/06 15:28:28;;;;;;;23.58;16.85;;;;;;;2.84;100.00;100871.22;10540005;28;20036;-74
2021/12/06 15:33:29;;;;;;;24.30;17.42;;;;;;;2.83;100.00;100874.00;10541266;28;20502;-74
2021/12/06 15:38:41;;;;;;;33.35;18.55;;;;;;;2.97;100.00;100854.81;10556463;28;20043;-74
2021/12/06 15:43:47;;;;;;;18.83;16.52;;;;;;;2.91;100.00;100860.75;10539909;28;20105;-74
2021/12/06 15:48:48;;;;;;;;;;;;;;;3.03;100.00;100847.03;10539301;28;20035;-73
2021/12/06 15:53:57;;;;;;;27.98;17.58;;;;;;;3.00;100.00;100833.13;10540684;28;19915;-74
2021/12/06 15:59:08;;;;;;;28.70;18.75;;;;;;;2.99;100.00;100818.88;10540250;28;20039;-74
2021/12/06 16:04:15;;;;;;;35.92;17.70;;;;;;;3.05;100.00;100812.09;10538177;28;20103;-76
2021/12/06 16:09:16;;;;;;;28.42;18.45;;;;;;;2.99;100.00;100797.47;10539720;28;20048;-75
2021/12/06 16:14:16;;;;;;;26.98;21.05;;;;;;;3.00;100.00;100788.47;10538855;28;20032;-75
2021/12/06 16:19:17;;;;;;;31.92;19.80;;;;;;;3.04;100.00;100789.00;10539982;28;20051;-77
2021/12/06 16:24:18;;;;;;;24.65;17.42;;;;;;;3.04;100.00;100772.97;10539219;28;20105;-77
2021/12/06 16:29:24;;;;;;;34.17;18.88;;;;;;;3.08;100.00;100768.97;10538922;28;20544;-76
2021/12/06 16:34:29;;;;;;;27.25;19.58;;;;;;;3.18;100.00;100758.19;10538492;28;20111;-77
2021/12/06 16:39:34;;;;;;;29.02;18.95;;;;;;;3.15;100.00;100756.66;10506945;28;20032;-77
2021/12/06 16:44:42;;;;;;;23.25;19.33;;;;;;;3.13;100.00;100747.97;10537755;28;20025;-77
2021/12/06 16:49:52;;;;;;;27.50;18.65;;;;;;;3.15;100.00;100743.28;10541154;28;20067;-76
2021/12/06 16:55:06;;;;;;;23.48;16.58;;;;;;;3.17;100.00;100737.81;10538013;28;20085;-76
2021/12/06 17:00:09;;;;;;;25.73;16.67;;;;;;;3.16;100.00;100731.63;10542692;28;20542;-77
2021/12/06 17:05:10;;;;;;;33.25;17.90;;;;;;;3.13;100.00;100729.25;10539791;28;20048;-77
2021/12/06 17:10:20;;;;;;;20.98;14.88;;;;;;;3.22;100.00;100711.41;10542434;28;20043;-78
2021/12/06 17:15:25;;;;;;;18.55;12.20;;;;;;;3.19;100.00;100698.34;10545999;28;20443;-75
2021/12/06 17:20:32;;;;;;;22.58;14.65;;;;;;;3.12;100.00;100706.13;10546012;28;20128;-74
2021/12/06 17:25:36;;;;;;;22.63;16.98;;;;;;;3.09;100.00;100686.88;10546234;28;20039;-75
2021/12/06 17:30:48;;;;;;;27.15;12.48;;;;;;;3.13;100.00;100670.38;10546205;28;20470;-76
2021/12/06 17:35:50;;;;;;;18.20;13.75;;;;;;;3.13;100.00;100658.84;10545520;28;20036;-75
2021/12/06 17:40:52;;;;;;;24.83;15.68;;;;;;;3.08;100.00;100658.47;10545577;28;20093;-74
2021/12/06 17:45:53;;;;;;;22.08;14.93;;;;;;;3.07;100.00;100643.41;10528192;28;20067;-74
2021/12/06 17:50:53;;;;;;;22.58;17.10;;;;;;;3.02;100.00;100642.00;10544611;28;20034;-76
2021/12/06 17:55:54;;;;;;;23.75;16.50;;;;;;;3.03;100.00;100626.81;10544971;28;20032;-75
2021/12/06 18:00:56;;;;;;;32.00;20.23;;;;;;;3.01;100.00;100624.28;10526598;28;20539;-75
2021/12/06 18:05:56;;;;;;;26.13;19.73;;;;;;;3.05;100.00;100619.47;10561948;28;20032;-75
2021/12/06 18:10:57;;;;;;;24.10;16.65;;;;;;;3.03;100.00;100616.97;10544376;28;20036;-74
2021/12/06 18:15:57;;;;;;;26.15;18.85;;;;;;;3.10;100.00;100611.84;10544103;28;20107;-76
2021/12/06 18:21:00;;;;;;;29.00;19.88;;;;;;;3.14;100.00;100597.13;10559416;28;20460;-75
2021/12/06 18:26:00;;;;;;;20.92;16.02;;;;;;;3.12;100.00;100591.09;10544680;28;20089;-74
2021/12/06 18:31:04;;;;;;;20.60;15.55;;;;;;;3.19;100.00;100588.63;10541538;28;20028;-75
2021/12/06 18:36:06;;;;;;;22.27;16.35;;;;;;;3.06;100.00;100573.00;10543685;28;20027;-75
2021/12/06 18:41:09;;;;;;;20.55;15.50;;;;;;;3.08;100.00;100564.81;10543036;28;20024;-75
2021/12/06 18:46:14;;;;;;;22.48;13.18;;;;;;;2.97;100.00;100557.91;10560149;28;20028;-76
2021/12/06 18:51:14;;;;;;;16.90;12.35;;;;;;;2.94;100.00;100534.97;10542057;28;20036;-74
2021/12/06 18:56:15;;;;;;;17.42;13.15;;;;;;;2.88;100.00;100540.97;10540677;28;20036;-75
2021/12/06 19:01:17;;;;;;;30.38;15.88;;;;;;;2.84;100.00;100526.22;10542721;28;20091;-75
2021/12/06 19:06:18;;;;;;;19.27;15.32;;;;;;;2.79;100.00;100517.81;10542399;28;20042;-75
2021/12/06 19:11:18;;;;;;;24.35;13.90;;;;;;;2.74;100.00;100509.41;10543499;28;20470;-75
2021/12/06 19:16:19;;;;;;;16.70;14.98;;;;;;;2.67;100.00;100495.00;10545661;28;20047;-75
2021/12/06 19:21:19;;;;;;;17.90;14.57;;;;;;;2.70;100.00;100502.72;10544987;28;20039;-76
2021/12/06 19:26:20;;;;;;;20.63;13.93;;;;;;;2.60;100.00;100496.63;10541769;28;20047;-74
2021/12/06 19:31:21;;;;;;;22.77;14.77;;;;;;;2.47;100.00;100481.00;10540284;28;20463;-75
2021/12/06 19:36:21;;;;;;;18.80;16.00;;;;;;;2.38;100.00;100472.06;10541105;28;20096;-76
2021/12/06 19:41:22;;;;;;;18.75;16.45;;;;;;;2.41;100.00;100473.59;10541175;28;20039;-77
2021/12/06 19:46:23;;;;;;;14.10;11.32;;;;;;;2.33;100.00;100463.69;10540344;28;20032;-75
2021/12/06 19:51:25;;;;;;;18.80;13.73;;;;;;;2.25;100.00;100460.94;10541572;28;20035;-74
2021/12/06 19:56:25;;;;;;;13.52;10.65;;;;;;;2.21;100.00;100432.88;10540953;28;20051;-74
2021/12/06 20:01:27;;;;;;;12.55;10.63;;;;;;;2.11;100.00;100443.66;10522304;28;20344;-74
2021/12/06 20:06:27;;;;;;;13.57;12.02;;;;;;;2.07;100.00;100432.44;10540940;28;20043;-72
2021/12/06 20:11:27;;;;;;;10.10;9.10;;;;;;;2.13;100.00;100430.97;10539415;28;20039;-74
2021/12/06 20:16:28;;;;;;;13.68;10.68;;;;;;;2.16;100.00;100429.81;10540219;28;20127;-75
2021/12/06 20:21:29;;;;;;;11.75;10.65;;;;;;;2.07;100.00;100421.75;10539666;28;20133;-77
2021/12/06 20:26:29;;;;;;;16.50;12.85;;;;;;;1.95;100.00;100417.63;10540602;28;20492;-76
2021/12/06 20:31:29;;;;;;;15.38;12.48;;;;;;;1.85;100.00;100415.06;10540551;28;20040;-76
2021/12/06 20:36:31;;;;;;;22.00;14.77;;;;;;;1.78;100.00;100418.47;10540063;28;20028;-75
2021/12/06 20:41:32;;;;;;;15.75;13.10;;;;;;;1.73;100.00;100400.25;10538539;28;20356;-78
2021/12/06 20:46:33;;;;;;;19.90;13.75;;;;;;;1.66;100.00;100401.00;10545192;28;20036;-75
2021/12/06 20:51:33;;;;;;;14.27;9.93;;;;;;;1.68;100.00;100401.69;10547170;28;20052;-76
2021/12/06 20:56:36;;;;;;;17.15;14.98;;;;;;;1.78;100.00;100410.47;10547928;28;20048;-76
2021/12/06 21:01:36;;;;;;;16.35;14.73;;;;;;;1.88;100.00;100405.88;10546753;28;20088;-74
2021/12/06 21:06:37;;;;;;;13.35;11.85;;;;;;;1.98;100.00;100395.09;10546906;28;20071;-73
2021/12/06 21:12:23;;;;;;;16.67;13.05;;;;;;;1.90;100.00;100400.38;10548002;28;20372;-72
2021/12/06 21:17:05;;;;;;;16.77;12.25;;;;;;;1.90;100.00;100387.88;10529855;28;20044;-74
2021/12/06 21:22:06;;;;;;;11.30;10.23;;;;;;;1.84;100.00;100396.50;10546902;28;20126;-74
2021/12/06 21:27:07;;;;;;;16.08;11.02;;;;;;;1.76;100.00;100397.28;10547081;28;20379;-74
2021/12/06 21:32:07;;;;;;;13.32;11.88;;;;;;;1.70;100.00;100394.38;10544971;28;20055;-74
2021/12/06 21:37:11;;;;;;;13.02;11.85;;;;;;;1.75;100.00;100406.25;10551186;28;20032;-73
2021/12/06 21:42:11;;;;;;;16.45;11.07;;;;;;;1.65;100.00;100388.66;10563587;28;20062;-73
2021/12/06 21:47:12;;;;;;;12.35;10.23;;;;;;;1.67;100.00;100387.50;10544842;28;20085;-73
2021/12/06 21:52:13;;;;;;;17.27;14.60;;;;;;;1.68;100.00;100381.16;10527353;28;20103;-73
2021/12/06 21:57:13;;;;;;;17.25;14.48;;;;;;;1.71;100.00;100364.84;10543576;28;20032;-72
2021/12/06 22:02:14;;;;;;;14.27;12.57;;;;;;;1.74;100.00;100377.06;10544417;28;20052;-73
2021/12/06 22:07:16;;;;;;;15.55;13.95;;;;;;;1.83;100.00;100376.16;10544721;28;20079;-74
2021/12/06 22:12:17;;;;;;;17.48;14.73;;;;;;;2.00;100.00;100383.28;10544688;28;20178;-74
2021/12/06 22:17:17;;;;;;;17.77;14.70;;;;;;;2.08;100.00;100383.34;10544771;28;20032;-75
2021/12/06 22:22:17;;;;;;;19.05;16.60;;;;;;;2.16;100.00;100365.72;10543200;28;20032;-75
2021/12/06 22:27:18;;;;;;;14.90;12.50;;;;;;;2.33;100.00;100372.84;10544435;28;20149;-75
2021/12/06 22:32:18;;;;;;;15.23;12.32;;;;;;;2.53;100.00;100395.69;10544067;28;20032;-76
2021/12/06 22:37:19;;;;;;;15.68;13.23;;;;;;;2.69;100.00;100400.28;10544657;28;20483;-76
2021/12/06 22:42:20;;;;;;;22.25;11.95;;;;;;;2.78;100.00;100396.66;10541620;28;20483;-76
2021/12/06 22:47:20;;;;;;;16.55;12.52;;;;;;;2.80;100.00;100401.84;10528340;28;20024;-75
2021/12/06 22:52:20;;;;;;;17.23;14.52;;;;;;;2.77;100.00;100402.16;10544188;28;20037;-76